sensor_id;sensor_type;location;lat;lon;timestamp;temperature;humidity
14357;DHT22;7262;48.764;9.166;2023-02-18T00:01:23;12.50;99.90
14357;DHT22;7262;48.764;9.166;2023-02-18T00:03:52;12.40;99.90
14357;DHT22;7262;48.764;9.166;2023-02-18T00:06:19;12.40;99.90
14357;DHT22;7262;48.764;9.166;2023-02-18T00:08:47;12.40;99.90
14357;DHT22;7262;48.764;9.166;2023-02-18T00:11:14;12.40;99.90
14357;DHT22;7262;48.764;9.166;2023-02-18T00:13:42;12.40;99.90
14357;DHT22;7262;48.764;9.166;2023-02-18T00:16:10;12.40;99.90
14357;DHT22;7262;48.764;9.166;2023-02-18T00:18:37;12.40;99.90
14357;DHT22;7262;48.764;9.166;2023-02-18T00:21:06;12.40;99.90
14357;DHT22;7262;48.764;9.166;2023-02-18T00:23:33;12.40;99.90
14357;DHT22;7262;48.764;9.166;2023-02-18T00:26:01;12.40;99.90
14357;DHT22;7262;48.764;9.166;2023-02-18T00:28:28;12.30;99.90
14357;DHT22;7262;48.764;9.166;2023-02-18T00:30:58;12.30;99.90
14357;DHT22;7262;48.764;9.166;2023-02-18T00:33:24;12.40;99.90
14357;DHT22;7262;48.764;9.166;2023-02-18T00:35:59;12.40;99.90
14357;DHT22;7262;48.764;9.166;2023-02-18T00:38:27;12.40;99.90
14357;DHT22;7262;48.764;9.166;2023-02-18T00:40:54;12.40;99.90
14357;DHT22;7262;48.764;9.166;2023-02-18T00:43:21;12.30;99.90
14357;DHT22;7262;48.764;9.166;2023-02-18T00:45:47;12.30;99.90
14357;DHT22;7262;48.764;9.166;2023-02-18T00:48:14;12.30;99.90
14357;DHT22;7262;48.764;9.166;2023-02-18T00:50:41;12.40;99.90
14357;DHT22;7262;48.764;9.166;2023-02-18T00:53:08;12.30;99.90
14357;DHT22;7262;48.764;9.166;2023-02-18T00:55:38;12.30;99.90
14357;DHT22;7262;48.764;9.166;2023-02-18T00:58:05;12.30;99.90
14357;DHT22;7262;48.764;9.166;2023-02-18T01:00:32;12.30;99.90
14357;DHT22;7262;48.764;9.166;2023-02-18T01:03:00;12.30;99.90
14357;DHT22;7262;48.764;9.166;2023-02-18T01:05:27;12.30;99.90
14357;DHT22;7262;48.764;9.166;2023-02-18T01:07:54;12.30;99.90
14357;DHT22;7262;48.764;9.166;2023-02-18T01:10:21;12.30;99.90
14357;DHT22;7262;48.764;9.166;2023-02-18T01:12:49;12.30;99.90
14357;DHT22;7262;48.764;9.166;2023-02-18T01:15:16;12.30;99.90
14357;DHT22;7262;48.764;9.166;2023-02-18T01:17:45;12.30;99.90
14357;DHT22;7262;48.764;9.166;2023-02-18T01:20:12;12.30;99.90
14357;DHT22;7262;48.764;9.166;2023-02-18T01:22:39;12.30;99.90
14357;DHT22;7262;48.764;9.166;2023-02-18T01:25:07;12.20;99.90
14357;DHT22;7262;48.764;9.166;2023-02-18T01:27:35;12.20;99.90
14357;DHT22;7262;48.764;9.166;2023-02-18T01:30:03;12.20;99.90
14357;DHT22;7262;48.764;9.166;2023-02-18T01:32:33;12.20;99.90
14357;DHT22;7262;48.764;9.166;2023-02-18T01:35:00;12.20;99.90
14357;DHT22;7262;48.764;9.166;2023-02-18T01:37:27;12.20;99.90
14357;DHT22;7262;48.764;9.166;2023-02-18T01:39:54;12.20;99.90
14357;DHT22;7262;48.764;9.166;2023-02-18T01:42:23;12.20;99.90
14357;DHT22;7262;48.764;9.166;2023-02-18T01:44:51;12.10;99.90
14357;DHT22;7262;48.764;9.166;2023-02-18T01:47:19;12.10;99.90
14357;DHT22;7262;48.764;9.166;2023-02-18T01:49:47;12.10;99.90
14357;DHT22;7262;48.764;9.166;2023-02-18T01:52:16;12.10;99.90
14357;DHT22;7262;48.764;9.166;2023-02-18T01:54:44;12.10;99.90
14357;DHT22;7262;48.764;9.166;2023-02-18T01:57:13;12.10;99.90
14357;DHT22;7262;48.764;9.166;2023-02-18T01:59:42;12.10;99.90
14357;DHT22;7262;48.764;9.166;2023-02-18T02:02:10;12.10;99.90
14357;DHT22;7262;48.764;9.166;2023-02-18T02:04:40;12.00;99.90
14357;DHT22;7262;48.764;9.166;2023-02-18T02:07:07;12.00;99.90
14357;DHT22;7262;48.764;9.166;2023-02-18T02:09:34;12.00;99.90
14357;DHT22;7262;48.764;9.166;2023-02-18T02:12:09;12.00;99.90
14357;DHT22;7262;48.764;9.166;2023-02-18T02:14:48;12.00;99.90
14357;DHT22;7262;48.764;9.166;2023-02-18T02:17:21;12.00;99.90
14357;DHT22;7262;48.764;9.166;2023-02-18T02:25:40;11.90;99.90
14357;DHT22;7262;48.764;9.166;2023-02-18T02:28:36;11.90;99.90
14357;DHT22;7262;48.764;9.166;2023-02-18T02:31:21;11.80;99.90
14357;DHT22;7262;48.764;9.166;2023-02-18T02:36:46;11.90;99.90
14357;DHT22;7262;48.764;9.166;2023-02-18T02:39:16;11.90;99.90
14357;DHT22;7262;48.764;9.166;2023-02-18T02:41:49;11.90;99.90
14357;DHT22;7262;48.764;9.166;2023-02-18T02:44:19;12.00;99.90
14357;DHT22;7262;48.764;9.166;2023-02-18T02:46:47;12.00;99.90
14357;DHT22;7262;48.764;9.166;2023-02-18T02:49:18;12.00;99.90
14357;DHT22;7262;48.764;9.166;2023-02-18T02:51:48;12.00;99.90
14357;DHT22;7262;48.764;9.166;2023-02-18T02:54:17;12.00;99.90
14357;DHT22;7262;48.764;9.166;2023-02-18T02:56:47;12.00;99.90
14357;DHT22;7262;48.764;9.166;2023-02-18T02:59:15;12.00;99.90
14357;DHT22;7262;48.764;9.166;2023-02-18T03:01:50;12.00;99.90
14357;DHT22;7262;48.764;9.166;2023-02-18T03:04:22;12.10;99.90
14357;DHT22;7262;48.764;9.166;2023-02-18T03:09:42;12.10;99.90
14357;DHT22;7262;48.764;9.166;2023-02-18T03:12:15;12.10;99.90
14357;DHT22;7262;48.764;9.166;2023-02-18T03:14:45;12.10;99.90
14357;DHT22;7262;48.764;9.166;2023-02-18T03:17:14;12.10;99.90
14357;DHT22;7262;48.764;9.166;2023-02-18T03:19:46;12.00;99.90
14357;DHT22;7262;48.764;9.166;2023-02-18T03:22:15;12.00;99.90
14357;DHT22;7262;48.764;9.166;2023-02-18T03:24:47;12.00;99.90
14357;DHT22;7262;48.764;9.166;2023-02-18T03:27:16;11.90;99.90
14357;DHT22;7262;48.764;9.166;2023-02-18T03:29:46;11.90;99.90
14357;DHT22;7262;48.764;9.166;2023-02-18T03:32:15;11.80;99.90
14357;DHT22;7262;48.764;9.166;2023-02-18T03:34:43;11.80;99.90
14357;DHT22;7262;48.764;9.166;2023-02-18T03:37:11;11.70;99.90
14357;DHT22;7262;48.764;9.166;2023-02-18T03:39:39;11.70;99.90
14357;DHT22;7262;48.764;9.166;2023-02-18T03:42:08;11.60;99.90
14357;DHT22;7262;48.764;9.166;2023-02-18T03:44:35;11.60;99.90
14357;DHT22;7262;48.764;9.166;2023-02-18T03:47:02;11.50;99.90
14357;DHT22;7262;48.764;9.166;2023-02-18T03:49:28;11.50;99.90
14357;DHT22;7262;48.764;9.166;2023-02-18T03:51:55;11.40;99.90
14357;DHT22;7262;48.764;9.166;2023-02-18T03:54:22;11.30;99.90
14357;DHT22;7262;48.764;9.166;2023-02-18T03:56:49;11.20;99.90
14357;DHT22;7262;48.764;9.166;2023-02-18T03:59:18;11.10;99.90
14357;DHT22;7262;48.764;9.166;2023-02-18T04:01:45;11.00;99.90
14357;DHT22;7262;48.764;9.166;2023-02-18T04:04:12;10.90;99.90
14357;DHT22;7262;48.764;9.166;2023-02-18T04:06:38;10.80;99.90
14357;DHT22;7262;48.764;9.166;2023-02-18T04:09:05;10.80;99.90
14357;DHT22;7262;48.764;9.166;2023-02-18T04:11:34;10.80;99.90
14357;DHT22;7262;48.764;9.166;2023-02-18T04:14:02;10.80;99.90
14357;DHT22;7262;48.764;9.166;2023-02-18T04:16:30;10.80;99.90
14357;DHT22;7262;48.764;9.166;2023-02-18T04:18:57;10.80;99.90
14357;DHT22;7262;48.764;9.166;2023-02-18T04:21:24;10.90;99.90
14357;DHT22;7262;48.764;9.166;2023-02-18T04:23:51;10.90;99.90
14357;DHT22;7262;48.764;9.166;2023-02-18T04:26:17;10.80;99.90
14357;DHT22;7262;48.764;9.166;2023-02-18T04:28:44;10.80;99.90
14357;DHT22;7262;48.764;9.166;2023-02-18T04:31:11;10.70;99.90
14357;DHT22;7262;48.764;9.166;2023-02-18T04:33:39;10.60;99.90
14357;DHT22;7262;48.764;9.166;2023-02-18T04:36:07;10.60;99.90
14357;DHT22;7262;48.764;9.166;2023-02-18T04:38:34;10.50;99.90
14357;DHT22;7262;48.764;9.166;2023-02-18T04:41:01;10.50;99.90
14357;DHT22;7262;48.764;9.166;2023-02-18T04:43:28;10.30;99.90
14357;DHT22;7262;48.764;9.166;2023-02-18T04:45:55;10.30;99.90
14357;DHT22;7262;48.764;9.166;2023-02-18T04:48:22;10.20;99.90
14357;DHT22;7262;48.764;9.166;2023-02-18T04:50:52;10.10;99.90
14357;DHT22;7262;48.764;9.166;2023-02-18T04:53:20;10.10;99.90
14357;DHT22;7262;48.764;9.166;2023-02-18T04:55:48;10.00;99.90
14357;DHT22;7262;48.764;9.166;2023-02-18T04:58:18;10.00;99.90
14357;DHT22;7262;48.764;9.166;2023-02-18T05:00:45;9.90;99.90
14357;DHT22;7262;48.764;9.166;2023-02-18T05:03:13;9.90;99.90
14357;DHT22;7262;48.764;9.166;2023-02-18T05:05:40;9.90;99.90
14357;DHT22;7262;48.764;9.166;2023-02-18T05:08:08;9.80;99.90
14357;DHT22;7262;48.764;9.166;2023-02-18T05:10:35;9.80;99.90
14357;DHT22;7262;48.764;9.166;2023-02-18T05:13:02;9.80;99.90
14357;DHT22;7262;48.764;9.166;2023-02-18T05:15:29;9.80;99.90
14357;DHT22;7262;48.764;9.166;2023-02-18T05:17:56;9.80;99.90
14357;DHT22;7262;48.764;9.166;2023-02-18T05:20:25;9.70;99.90
14357;DHT22;7262;48.764;9.166;2023-02-18T05:22:52;9.70;99.90
14357;DHT22;7262;48.764;9.166;2023-02-18T05:25:20;9.80;99.90
14357;DHT22;7262;48.764;9.166;2023-02-18T05:27:47;9.80;99.90
14357;DHT22;7262;48.764;9.166;2023-02-18T05:30:13;9.80;99.90
14357;DHT22;7262;48.764;9.166;2023-02-18T05:32:40;9.80;99.90
14357;DHT22;7262;48.764;9.166;2023-02-18T05:35:07;9.80;99.90
14357;DHT22;7262;48.764;9.166;2023-02-18T05:37:35;9.80;99.90
14357;DHT22;7262;48.764;9.166;2023-02-18T05:40:02;9.70;99.90
14357;DHT22;7262;48.764;9.166;2023-02-18T05:42:30;9.80;99.90
14357;DHT22;7262;48.764;9.166;2023-02-18T05:44:57;9.70;99.90
14357;DHT22;7262;48.764;9.166;2023-02-18T05:47:24;9.70;99.90
14357;DHT22;7262;48.764;9.166;2023-02-18T05:49:51;9.70;99.90
14357;DHT22;7262;48.764;9.166;2023-02-18T05:52:19;9.60;99.90
14357;DHT22;7262;48.764;9.166;2023-02-18T05:54:46;9.60;99.90
14357;DHT22;7262;48.764;9.166;2023-02-18T05:57:13;9.60;99.90
14357;DHT22;7262;48.764;9.166;2023-02-18T05:59:42;9.60;99.90
14357;DHT22;7262;48.764;9.166;2023-02-18T06:02:09;9.60;99.90
14357;DHT22;7262;48.764;9.166;2023-02-18T06:04:36;9.50;99.90
14357;DHT22;7262;48.764;9.166;2023-02-18T06:07:03;9.50;99.90
14357;DHT22;7262;48.764;9.166;2023-02-18T06:09:30;9.50;99.90
14357;DHT22;7262;48.764;9.166;2023-02-18T06:11:57;9.50;99.90
14357;DHT22;7262;48.764;9.166;2023-02-18T06:14:23;9.40;99.90
14357;DHT22;7262;48.764;9.166;2023-02-18T06:16:51;9.40;99.90
14357;DHT22;7262;48.764;9.166;2023-02-18T06:19:18;9.30;99.90
14357;DHT22;7262;48.764;9.166;2023-02-18T06:21:45;9.30;99.90
14357;DHT22;7262;48.764;9.166;2023-02-18T06:24:12;9.20;99.90
14357;DHT22;7262;48.764;9.166;2023-02-18T06:26:38;9.30;99.90
14357;DHT22;7262;48.764;9.166;2023-02-18T06:29:05;9.20;99.90
14357;DHT22;7262;48.764;9.166;2023-02-18T06:31:33;9.10;99.90
14357;DHT22;7262;48.764;9.166;2023-02-18T06:34:02;9.20;99.90
14357;DHT22;7262;48.764;9.166;2023-02-18T06:36:28;9.20;99.90
14357;DHT22;7262;48.764;9.166;2023-02-18T06:38:57;9.10;99.90
14357;DHT22;7262;48.764;9.166;2023-02-18T06:41:24;9.30;99.90
14357;DHT22;7262;48.764;9.166;2023-02-18T06:43:51;9.40;99.90
14357;DHT22;7262;48.764;9.166;2023-02-18T06:46:18;9.40;99.90
14357;DHT22;7262;48.764;9.166;2023-02-18T06:48:45;9.50;99.90
14357;DHT22;7262;48.764;9.166;2023-02-18T06:51:14;9.50;99.90
14357;DHT22;7262;48.764;9.166;2023-02-18T06:53:41;9.50;99.90
14357;DHT22;7262;48.764;9.166;2023-02-18T06:56:08;9.50;99.90
14357;DHT22;7262;48.764;9.166;2023-02-18T06:58:34;9.60;99.90
14357;DHT22;7262;48.764;9.166;2023-02-18T07:01:01;9.60;99.90
14357;DHT22;7262;48.764;9.166;2023-02-18T07:03:30;9.80;99.90
14357;DHT22;7262;48.764;9.166;2023-02-18T07:05:57;9.90;99.90
14357;DHT22;7262;48.764;9.166;2023-02-18T07:08:25;9.90;99.90
14357;DHT22;7262;48.764;9.166;2023-02-18T07:10:52;10.00;99.90
14357;DHT22;7262;48.764;9.166;2023-02-18T07:13:19;10.00;99.90
14357;DHT22;7262;48.764;9.166;2023-02-18T07:15:45;10.10;99.90
14357;DHT22;7262;48.764;9.166;2023-02-18T07:18:13;10.20;99.90
14357;DHT22;7262;48.764;9.166;2023-02-18T07:20:40;10.30;99.90
14357;DHT22;7262;48.764;9.166;2023-02-18T07:23:07;10.50;99.90
14357;DHT22;7262;48.764;9.166;2023-02-18T07:25:35;10.60;99.90
14357;DHT22;7262;48.764;9.166;2023-02-18T07:28:02;10.80;99.90
14357;DHT22;7262;48.764;9.166;2023-02-18T07:30:29;10.90;99.90
14357;DHT22;7262;48.764;9.166;2023-02-18T07:32:56;11.10;99.90
14357;DHT22;7262;48.764;9.166;2023-02-18T07:35:23;11.20;99.90
14357;DHT22;7262;48.764;9.166;2023-02-18T07:37:49;11.30;99.90
14357;DHT22;7262;48.764;9.166;2023-02-18T07:40:18;11.40;99.90
14357;DHT22;7262;48.764;9.166;2023-02-18T07:42:48;11.40;99.90
14357;DHT22;7262;48.764;9.166;2023-02-18T07:45:15;11.50;99.90
14357;DHT22;7262;48.764;9.166;2023-02-18T07:47:41;11.60;99.90
14357;DHT22;7262;48.764;9.166;2023-02-18T07:50:10;11.60;99.90
14357;DHT22;7262;48.764;9.166;2023-02-18T07:52:37;11.80;99.90
14357;DHT22;7262;48.764;9.166;2023-02-18T07:55:04;11.90;99.90
14357;DHT22;7262;48.764;9.166;2023-02-18T07:57:31;12.00;99.90
14357;DHT22;7262;48.764;9.166;2023-02-18T07:59:59;12.00;99.90
14357;DHT22;7262;48.764;9.166;2023-02-18T08:02:27;12.20;99.90
14357;DHT22;7262;48.764;9.166;2023-02-18T08:04:54;12.40;99.90
14357;DHT22;7262;48.764;9.166;2023-02-18T08:07:21;12.40;99.90
14357;DHT22;7262;48.764;9.166;2023-02-18T08:09:48;12.40;99.90
14357;DHT22;7262;48.764;9.166;2023-02-18T08:12:15;12.40;99.90
14357;DHT22;7262;48.764;9.166;2023-02-18T08:14:42;12.60;99.90
14357;DHT22;7262;48.764;9.166;2023-02-18T08:17:10;12.50;99.90
14357;DHT22;7262;48.764;9.166;2023-02-18T08:19:37;12.50;99.90
14357;DHT22;7262;48.764;9.166;2023-02-18T08:22:04;12.50;99.90
14357;DHT22;7262;48.764;9.166;2023-02-18T08:24:30;12.60;99.90
14357;DHT22;7262;48.764;9.166;2023-02-18T08:26:57;12.60;99.90
14357;DHT22;7262;48.764;9.166;2023-02-18T08:29:24;12.60;99.90
14357;DHT22;7262;48.764;9.166;2023-02-18T08:31:51;12.60;99.90
14357;DHT22;7262;48.764;9.166;2023-02-18T08:34:23;12.70;99.90
14357;DHT22;7262;48.764;9.166;2023-02-18T08:36:49;12.80;99.90
14357;DHT22;7262;48.764;9.166;2023-02-18T08:39:16;12.80;99.90
14357;DHT22;7262;48.764;9.166;2023-02-18T08:41:43;13.00;99.90
14357;DHT22;7262;48.764;9.166;2023-02-18T08:44:09;12.90;99.90
14357;DHT22;7262;48.764;9.166;2023-02-18T08:46:36;13.00;99.90
14357;DHT22;7262;48.764;9.166;2023-02-18T08:49:04;13.10;99.90
14357;DHT22;7262;48.764;9.166;2023-02-18T08:51:33;13.00;99.90
14357;DHT22;7262;48.764;9.166;2023-02-18T08:54:00;13.10;99.90
14357;DHT22;7262;48.764;9.166;2023-02-18T08:56:28;13.20;99.90
14357;DHT22;7262;48.764;9.166;2023-02-18T08:58:56;13.20;99.90
14357;DHT22;7262;48.764;9.166;2023-02-18T09:01:23;13.20;99.90
14357;DHT22;7262;48.764;9.166;2023-02-18T09:03:50;13.30;99.90
14357;DHT22;7262;48.764;9.166;2023-02-18T09:06:17;13.30;99.90
14357;DHT22;7262;48.764;9.166;2023-02-18T09:08:45;13.50;99.90
14357;DHT22;7262;48.764;9.166;2023-02-18T09:11:11;13.60;99.90
14357;DHT22;7262;48.764;9.166;2023-02-18T09:13:38;13.70;99.90
14357;DHT22;7262;48.764;9.166;2023-02-18T09:16:06;13.70;99.90
14357;DHT22;7262;48.764;9.166;2023-02-18T09:18:33;13.70;99.90
14357;DHT22;7262;48.764;9.166;2023-02-18T09:21:01;13.60;99.90
14357;DHT22;7262;48.764;9.166;2023-02-18T09:23:29;13.60;99.90
14357;DHT22;7262;48.764;9.166;2023-02-18T09:25:58;13.70;99.90
14357;DHT22;7262;48.764;9.166;2023-02-18T09:28:26;13.80;99.90
14357;DHT22;7262;48.764;9.166;2023-02-18T09:30:52;14.00;99.90
14357;DHT22;7262;48.764;9.166;2023-02-18T09:33:19;14.10;99.90
14357;DHT22;7262;48.764;9.166;2023-02-18T09:35:46;14.00;99.90
14357;DHT22;7262;48.764;9.166;2023-02-18T09:38:14;14.10;99.90
14357;DHT22;7262;48.764;9.166;2023-02-18T09:40:42;14.10;99.90
14357;DHT22;7262;48.764;9.166;2023-02-18T09:43:11;13.90;99.90
14357;DHT22;7262;48.764;9.166;2023-02-18T09:45:42;13.90;99.90
14357;DHT22;7262;48.764;9.166;2023-02-18T09:48:09;14.00;99.90
14357;DHT22;7262;48.764;9.166;2023-02-18T09:50:36;14.00;99.90
14357;DHT22;7262;48.764;9.166;2023-02-18T09:53:03;14.00;99.90
14357;DHT22;7262;48.764;9.166;2023-02-18T09:55:31;14.00;99.90
14357;DHT22;7262;48.764;9.166;2023-02-18T09:57:58;14.00;99.90
14357;DHT22;7262;48.764;9.166;2023-02-18T10:00:29;14.00;99.90
14357;DHT22;7262;48.764;9.166;2023-02-18T10:02:58;14.00;99.90
14357;DHT22;7262;48.764;9.166;2023-02-18T10:05:27;14.00;99.90
14357;DHT22;7262;48.764;9.166;2023-02-18T10:07:55;14.00;99.90
14357;DHT22;7262;48.764;9.166;2023-02-18T10:10:26;14.00;99.90
14357;DHT22;7262;48.764;9.166;2023-02-18T10:15:45;14.30;99.90
14357;DHT22;7262;48.764;9.166;2023-02-18T10:18:17;14.30;99.90
14357;DHT22;7262;48.764;9.166;2023-02-18T10:20:56;14.20;99.90
14357;DHT22;7262;48.764;9.166;2023-02-18T10:26:02;14.20;99.90
14357;DHT22;7262;48.764;9.166;2023-02-18T10:28:37;14.30;99.90
14357;DHT22;7262;48.764;9.166;2023-02-18T10:31:19;14.30;99.90
14357;DHT22;7262;48.764;9.166;2023-02-18T10:33:51;14.30;99.90
14357;DHT22;7262;48.764;9.166;2023-02-18T10:36:24;14.40;99.90
14357;DHT22;7262;48.764;9.166;2023-02-18T10:39:00;14.50;99.90
14357;DHT22;7262;48.764;9.166;2023-02-18T10:41:32;14.50;99.90
14357;DHT22;7262;48.764;9.166;2023-02-18T10:44:04;14.60;99.90
14357;DHT22;7262;48.764;9.166;2023-02-18T10:46:35;14.50;99.90
14357;DHT22;7262;48.764;9.166;2023-02-18T10:49:10;14.60;99.90
14357;DHT22;7262;48.764;9.166;2023-02-18T10:51:44;14.70;99.90
14357;DHT22;7262;48.764;9.166;2023-02-18T10:54:16;14.80;99.90
14357;DHT22;7262;48.764;9.166;2023-02-18T10:56:58;14.70;99.90
14357;DHT22;7262;48.764;9.166;2023-02-18T10:59:30;14.60;99.90
14357;DHT22;7262;48.764;9.166;2023-02-18T11:01:59;14.80;99.90
14357;DHT22;7262;48.764;9.166;2023-02-18T11:04:33;14.70;99.90
14357;DHT22;7262;48.764;9.166;2023-02-18T11:07:02;14.80;99.90
14357;DHT22;7262;48.764;9.166;2023-02-18T11:12:06;14.70;99.90
14357;DHT22;7262;48.764;9.166;2023-02-18T11:14:43;14.70;99.90
14357;DHT22;7262;48.764;9.166;2023-02-18T11:17:20;14.80;99.90
14357;DHT22;7262;48.764;9.166;2023-02-18T11:40:42;15.20;99.90
14357;DHT22;7262;48.764;9.166;2023-02-18T11:45:44;15.10;99.90
14357;DHT22;7262;48.764;9.166;2023-02-18T12:06:22;15.60;99.90
14357;DHT22;7262;48.764;9.166;2023-02-18T12:08:51;15.70;99.90
14357;DHT22;7262;48.764;9.166;2023-02-18T12:16:32;16.10;99.90
14357;DHT22;7262;48.764;9.166;2023-02-18T12:19:04;16.10;99.90
14357;DHT22;7262;48.764;9.166;2023-02-18T12:21:38;16.20;99.90
14357;DHT22;7262;48.764;9.166;2023-02-18T12:24:21;16.50;99.90
14357;DHT22;7262;48.764;9.166;2023-02-18T12:26:52;17.10;99.90
14357;DHT22;7262;48.764;9.166;2023-02-18T12:29:27;17.50;99.90
14357;DHT22;7262;48.764;9.166;2023-02-18T12:32:00;17.50;99.90
14357;DHT22;7262;48.764;9.166;2023-02-18T12:34:36;17.60;99.90
14357;DHT22;7262;48.764;9.166;2023-02-18T12:37:10;17.40;99.90
14357;DHT22;7262;48.764;9.166;2023-02-18T12:39:45;17.00;99.90
14357;DHT22;7262;48.764;9.166;2023-02-18T12:42:21;16.60;99.90
14357;DHT22;7262;48.764;9.166;2023-02-18T12:44:55;16.60;99.90
14357;DHT22;7262;48.764;9.166;2023-02-18T12:47:29;16.80;99.90
14357;DHT22;7262;48.764;9.166;2023-02-18T12:50:02;16.60;99.90
14357;DHT22;7262;48.764;9.166;2023-02-18T12:52:38;16.60;99.90
14357;DHT22;7262;48.764;9.166;2023-02-18T12:55:23;16.10;99.90
14357;DHT22;7262;48.764;9.166;2023-02-18T12:57:53;16.30;99.90
14357;DHT22;7262;48.764;9.166;2023-02-18T13:00:36;16.60;99.90
14357;DHT22;7262;48.764;9.166;2023-02-18T13:05:52;16.20;99.90
14357;DHT22;7262;48.764;9.166;2023-02-18T13:08:29;15.80;99.90
14357;DHT22;7262;48.764;9.166;2023-02-18T13:11:02;16.10;99.90
14357;DHT22;7262;48.764;9.166;2023-02-18T13:13:31;16.20;99.90
14357;DHT22;7262;48.764;9.166;2023-02-18T13:16:00;16.20;99.90
14357;DHT22;7262;48.764;9.166;2023-02-18T13:18:29;16.00;99.90
14357;DHT22;7262;48.764;9.166;2023-02-18T13:20:59;15.70;99.90
14357;DHT22;7262;48.764;9.166;2023-02-18T13:23:37;15.60;99.90
14357;DHT22;7262;48.764;9.166;2023-02-18T13:26:05;15.50;99.90
14357;DHT22;7262;48.764;9.166;2023-02-18T13:28:34;15.40;99.90
14357;DHT22;7262;48.764;9.166;2023-02-18T13:31:14;15.30;99.90
14357;DHT22;7262;48.764;9.166;2023-02-18T13:33:45;15.30;99.90
14357;DHT22;7262;48.764;9.166;2023-02-18T13:36:16;15.40;99.90
14357;DHT22;7262;48.764;9.166;2023-02-18T13:38:53;15.50;99.90
14357;DHT22;7262;48.764;9.166;2023-02-18T13:41:22;15.50;99.90
14357;DHT22;7262;48.764;9.166;2023-02-18T13:43:53;15.50;99.90
14357;DHT22;7262;48.764;9.166;2023-02-18T13:46:21;15.70;99.90
14357;DHT22;7262;48.764;9.166;2023-02-18T13:48:48;15.80;99.90
14357;DHT22;7262;48.764;9.166;2023-02-18T13:51:16;15.90;99.90
14357;DHT22;7262;48.764;9.166;2023-02-18T13:53:48;16.70;99.90
14357;DHT22;7262;48.764;9.166;2023-02-18T13:56:21;17.00;99.90
14357;DHT22;7262;48.764;9.166;2023-02-18T13:58:48;17.40;99.90
14357;DHT22;7262;48.764;9.166;2023-02-18T14:01:20;17.70;99.90
14357;DHT22;7262;48.764;9.166;2023-02-18T14:03:52;17.80;99.90
14357;DHT22;7262;48.764;9.166;2023-02-18T14:06:20;18.30;99.90
14357;DHT22;7262;48.764;9.166;2023-02-18T14:09:00;17.60;99.90
14357;DHT22;7262;48.764;9.166;2023-02-18T14:11:39;17.10;99.90
14357;DHT22;7262;48.764;9.166;2023-02-18T14:14:14;17.00;99.90
14357;DHT22;7262;48.764;9.166;2023-02-18T14:19:26;16.80;99.90
14357;DHT22;7262;48.764;9.166;2023-02-18T14:21:53;16.50;99.90
14357;DHT22;7262;48.764;9.166;2023-02-18T14:24:46;16.20;99.90
14357;DHT22;7262;48.764;9.166;2023-02-18T14:27:16;15.90;99.90
14357;DHT22;7262;48.764;9.166;2023-02-18T14:29:46;16.40;99.90
14357;DHT22;7262;48.764;9.166;2023-02-18T14:32:19;16.80;99.90
14357;DHT22;7262;48.764;9.166;2023-02-18T14:34:52;16.50;99.90
14357;DHT22;7262;48.764;9.166;2023-02-18T14:37:33;16.30;99.90
14357;DHT22;7262;48.764;9.166;2023-02-18T14:40:09;16.00;99.90
14357;DHT22;7262;48.764;9.166;2023-02-18T14:42:41;15.70;99.90
14357;DHT22;7262;48.764;9.166;2023-02-18T14:45:14;15.40;99.90
14357;DHT22;7262;48.764;9.166;2023-02-18T14:47:51;15.30;99.90
14357;DHT22;7262;48.764;9.166;2023-02-18T14:50:23;15.40;99.90
14357;DHT22;7262;48.764;9.166;2023-02-18T14:52:51;15.20;99.90
14357;DHT22;7262;48.764;9.166;2023-02-18T14:55:20;15.10;99.90
14357;DHT22;7262;48.764;9.166;2023-02-18T14:57:50;15.00;99.90
14357;DHT22;7262;48.764;9.166;2023-02-18T15:00:19;15.10;99.90
14357;DHT22;7262;48.764;9.166;2023-02-18T15:02:47;15.00;99.90
14357;DHT22;7262;48.764;9.166;2023-02-18T15:05:15;14.90;99.90
14357;DHT22;7262;48.764;9.166;2023-02-18T15:07:53;14.90;99.90
14357;DHT22;7262;48.764;9.166;2023-02-18T15:10:20;14.90;99.90
14357;DHT22;7262;48.764;9.166;2023-02-18T15:12:47;14.90;99.90
14357;DHT22;7262;48.764;9.166;2023-02-18T15:15:16;14.90;99.90
14357;DHT22;7262;48.764;9.166;2023-02-18T15:17:44;14.90;99.90
14357;DHT22;7262;48.764;9.166;2023-02-18T15:20:14;14.90;99.90
14357;DHT22;7262;48.764;9.166;2023-02-18T15:22:41;14.90;99.90
14357;DHT22;7262;48.764;9.166;2023-02-18T15:25:10;14.80;99.90
14357;DHT22;7262;48.764;9.166;2023-02-18T15:27:38;14.90;99.90
14357;DHT22;7262;48.764;9.166;2023-02-18T15:30:16;14.80;99.90
14357;DHT22;7262;48.764;9.166;2023-02-18T15:32:48;14.70;99.90
14357;DHT22;7262;48.764;9.166;2023-02-18T15:35:17;14.80;99.90
14357;DHT22;7262;48.764;9.166;2023-02-18T15:37:45;14.70;99.90
14357;DHT22;7262;48.764;9.166;2023-02-18T15:40:13;14.70;99.90
14357;DHT22;7262;48.764;9.166;2023-02-18T15:42:40;14.60;99.90
14357;DHT22;7262;48.764;9.166;2023-02-18T15:45:13;14.60;99.90
14357;DHT22;7262;48.764;9.166;2023-02-18T15:47:41;14.40;99.90
14357;DHT22;7262;48.764;9.166;2023-02-18T15:50:15;14.40;99.90
14357;DHT22;7262;48.764;9.166;2023-02-18T15:52:43;14.50;99.90
14357;DHT22;7262;48.764;9.166;2023-02-18T15:55:10;14.50;99.90
14357;DHT22;7262;48.764;9.166;2023-02-18T15:57:38;14.50;99.90
14357;DHT22;7262;48.764;9.166;2023-02-18T16:00:11;14.50;99.90
14357;DHT22;7262;48.764;9.166;2023-02-18T16:02:48;14.30;99.90
14357;DHT22;7262;48.764;9.166;2023-02-18T16:05:18;14.30;99.90
14357;DHT22;7262;48.764;9.166;2023-02-18T16:07:48;14.20;99.90
14357;DHT22;7262;48.764;9.166;2023-02-18T16:10:18;14.30;99.90
14357;DHT22;7262;48.764;9.166;2023-02-18T16:12:45;14.20;99.90
14357;DHT22;7262;48.764;9.166;2023-02-18T16:15:15;14.10;99.90
14357;DHT22;7262;48.764;9.166;2023-02-18T16:17:45;14.10;99.90
14357;DHT22;7262;48.764;9.166;2023-02-18T16:20:14;14.00;99.90
14357;DHT22;7262;48.764;9.166;2023-02-18T16:22:43;14.00;99.90
14357;DHT22;7262;48.764;9.166;2023-02-18T16:25:14;14.00;99.90
14357;DHT22;7262;48.764;9.166;2023-02-18T16:27:46;13.90;99.90
14357;DHT22;7262;48.764;9.166;2023-02-18T16:30:14;13.90;99.90
14357;DHT22;7262;48.764;9.166;2023-02-18T16:32:41;13.90;99.90
14357;DHT22;7262;48.764;9.166;2023-02-18T16:35:08;13.80;99.90
14357;DHT22;7262;48.764;9.166;2023-02-18T16:37:35;13.70;99.90
14357;DHT22;7262;48.764;9.166;2023-02-18T16:40:12;13.60;99.90
14357;DHT22;7262;48.764;9.166;2023-02-18T16:42:46;13.60;99.90
14357;DHT22;7262;48.764;9.166;2023-02-18T16:45:13;13.60;99.90
14357;DHT22;7262;48.764;9.166;2023-02-18T16:47:41;13.60;99.90
14357;DHT22;7262;48.764;9.166;2023-02-18T16:50:09;13.50;99.90
14357;DHT22;7262;48.764;9.166;2023-02-18T16:52:39;13.50;99.90
14357;DHT22;7262;48.764;9.166;2023-02-18T16:55:08;13.50;99.90
14357;DHT22;7262;48.764;9.166;2023-02-18T16:57:42;13.50;99.90
14357;DHT22;7262;48.764;9.166;2023-02-18T17:00:09;13.40;99.90
14357;DHT22;7262;48.764;9.166;2023-02-18T17:02:36;13.40;99.90
14357;DHT22;7262;48.764;9.166;2023-02-18T17:05:02;13.40;99.90
14357;DHT22;7262;48.764;9.166;2023-02-18T17:07:29;13.50;99.90
14357;DHT22;7262;48.764;9.166;2023-02-18T17:09:57;13.40;99.90
14357;DHT22;7262;48.764;9.166;2023-02-18T17:12:23;13.60;99.90